sensor_id;sensor_type;location;lat;lon;timestamp;pressure;altitude;pressure_sealevel;temperature;humidity
3250;BME280;1637;42.020;23.992;2023-03-01T00:00:52;93281.94;;;3.99;100.00
3250;BME280;1637;42.020;23.992;2023-03-01T00:03:18;93277.63;;;4.10;100.00
3250;BME280;1637;42.020;23.992;2023-03-01T00:05:47;93272.53;;;4.21;100.00
3250;BME280;1637;42.020;23.992;2023-03-01T00:08:13;93276.88;;;4.29;100.00
3250;BME280;1637;42.020;23.992;2023-03-01T00:10:40;93279.03;;;4.23;100.00
3250;BME280;1637;42.020;23.992;2023-03-01T00:13:07;93266.88;;;4.41;100.00
3250;BME280;1637;42.020;23.992;2023-03-01T00:15:38;93266.75;;;4.54;100.00
3250;BME280;1637;42.020;23.992;2023-03-01T00:18:05;93262.00;;;4.43;100.00
3250;BME280;1637;42.020;23.992;2023-03-01T00:20:31;93262.22;;;4.35;100.00
3250;BME280;1637;42.020;23.992;2023-03-01T00:23:00;93255.25;;;4.27;100.00
3250;BME280;1637;42.020;23.992;2023-03-01T00:25:26;93264.03;;;4.31;100.00
3250;BME280;1637;42.020;23.992;2023-03-01T00:27:53;93263.75;;;4.36;100.00
3250;BME280;1637;42.020;23.992;2023-03-01T00:30:20;93254.75;;;4.40;100.00
3250;BME280;1637;42.020;23.992;2023-03-01T00:32:47;93254.28;;;4.35;100.00
3250;BME280;1637;42.020;23.992;2023-03-01T00:35:14;93245.75;;;4.26;100.00
3250;BME280;1637;42.020;23.992;2023-03-01T00:37:40;93251.75;;;4.23;100.00
3250;BME280;1637;42.020;23.992;2023-03-01T00:40:10;93251.91;;;4.30;100.00
3250;BME280;1637;42.020;23.992;2023-03-01T00:42:37;93251.97;;;4.33;100.00
3250;BME280;1637;42.020;23.992;2023-03-01T00:45:05;93247.44;;;4.34;100.00
3250;BME280;1637;42.020;23.992;2023-03-01T00:47:33;93241.97;;;4.27;100.00
3250;BME280;1637;42.020;23.992;2023-03-01T00:49:59;93246.31;;;4.16;100.00
3250;BME280;1637;42.020;23.992;2023-03-01T00:52:26;93244.06;;;4.18;100.00
3250;BME280;1637;42.020;23.992;2023-03-01T00:54:53;93249.88;;;4.23;100.00
3250;BME280;1637;42.020;23.992;2023-03-01T00:57:21;93244.97;;;4.25;100.00
3250;BME280;1637;42.020;23.992;2023-03-01T00:59:48;93259.00;;;4.26;100.00
3250;BME280;1637;42.020;23.992;2023-03-01T01:02:17;93237.59;;;4.34;100.00
3250;BME280;1637;42.020;23.992;2023-03-01T01:04:44;93218.66;;;4.17;100.00
3250;BME280;1637;42.020;23.992;2023-03-01T01:07:11;93230.41;;;4.16;100.00
3250;BME280;1637;42.020;23.992;2023-03-01T01:09:38;93234.19;;;4.14;100.00
3250;BME280;1637;42.020;23.992;2023-03-01T01:12:05;93233.19;;;4.23;100.00
3250;BME280;1637;42.020;23.992;2023-03-01T01:14:34;93234.53;;;4.32;100.00
3250;BME280;1637;42.020;23.992;2023-03-01T01:17:01;93197.69;;;4.08;100.00
3250;BME280;1637;42.020;23.992;2023-03-01T01:19:28;93230.19;;;4.24;100.00
3250;BME280;1637;42.020;23.992;2023-03-01T01:21:55;93229.22;;;4.32;100.00
3250;BME280;1637;42.020;23.992;2023-03-01T01:24:21;93223.69;;;4.41;100.00
3250;BME280;1637;42.020;23.992;2023-03-01T01:26:48;93226.50;;;4.29;100.00
3250;BME280;1637;42.020;23.992;2023-03-01T01:29:15;93224.75;;;4.36;100.00
3250;BME280;1637;42.020;23.992;2023-03-01T01:31:43;93221.16;;;4.48;100.00
3250;BME280;1637;42.020;23.992;2023-03-01T01:34:14;93219.00;;;4.54;100.00
3250;BME280;1637;42.020;23.992;2023-03-01T01:36:41;93219.63;;;4.47;100.00
3250;BME280;1637;42.020;23.992;2023-03-01T01:39:08;93239.47;;;4.53;100.00
3250;BME280;1637;42.020;23.992;2023-03-01T01:41:40;93214.91;;;4.60;100.00
3250;BME280;1637;42.020;23.992;2023-03-01T01:44:17;93220.97;;;4.57;100.00
3250;BME280;1637;42.020;23.992;2023-03-01T01:46:47;93223.22;;;4.58;100.00
3250;BME280;1637;42.020;23.992;2023-03-01T01:49:22;93230.06;;;4.59;100.00
3250;BME280;1637;42.020;23.992;2023-03-01T01:51:57;93210.44;;;4.64;100.00
3250;BME280;1637;42.020;23.992;2023-03-01T01:54:27;93206.63;;;4.61;100.00
3250;BME280;1637;42.020;23.992;2023-03-01T01:56:58;93207.91;;;4.48;100.00
3250;BME280;1637;42.020;23.992;2023-03-01T01:59:28;93206.84;;;4.53;100.00
3250;BME280;1637;42.020;23.992;2023-03-01T02:01:59;93210.97;;;4.50;100.00
3250;BME280;1637;42.020;23.992;2023-03-01T02:04:27;93217.66;;;4.63;100.00
3250;BME280;1637;42.020;23.992;2023-03-01T02:06:59;93213.38;;;4.59;100.00
3250;BME280;1637;42.020;23.992;2023-03-01T02:09:28;93215.13;;;4.70;100.00
3250;BME280;1637;42.020;23.992;2023-03-01T02:11:55;93206.63;;;4.84;100.00
3250;BME280;1637;42.020;23.992;2023-03-01T02:14:22;93203.69;;;4.89;100.00
3250;BME280;1637;42.020;23.992;2023-03-01T02:16:49;93206.63;;;4.84;100.00
3250;BME280;1637;42.020;23.992;2023-03-01T02:19:27;93200.75;;;4.71;100.00
3250;BME280;1637;42.020;23.992;2023-03-01T02:22:03;93200.19;;;4.62;100.00
3250;BME280;1637;42.020;23.992;2023-03-01T02:24:38;93188.03;;;4.61;100.00
3250;BME280;1637;42.020;23.992;2023-03-01T02:27:09;93194.78;;;4.55;100.00
3250;BME280;1637;42.020;23.992;2023-03-01T02:29:38;93188.38;;;4.56;100.00
3250;BME280;1637;42.020;23.992;2023-03-01T02:32:05;93187.09;;;4.50;100.00
3250;BME280;1637;42.020;23.992;2023-03-01T02:34:32;93185.78;;;4.40;100.00
3250;BME280;1637;42.020;23.992;2023-03-01T02:37:01;93171.91;;;4.47;100.00
3250;BME280;1637;42.020;23.992;2023-03-01T02:39:33;93183.69;;;4.49;100.00
3250;BME280;1637;42.020;23.992;2023-03-01T02:42:10;93180.69;;;4.51;100.00
3250;BME280;1637;42.020;23.992;2023-03-01T02:44:39;93174.31;;;4.33;100.00
3250;BME280;1637;42.020;23.992;2023-03-01T02:47:05;93186.56;;;4.41;100.00
3250;BME280;1637;42.020;23.992;2023-03-01T02:49:34;93179.16;;;4.50;100.00
3250;BME280;1637;42.020;23.992;2023-03-01T02:52:34;93178.97;;;4.62;100.00
3250;BME280;1637;42.020;23.992;2023-03-01T02:55:06;93177.19;;;4.47;100.00
3250;BME280;1637;42.020;23.992;2023-03-01T02:57:38;93181.59;;;4.39;100.00
3250;BME280;1637;42.020;23.992;2023-03-01T03:00:10;93179.09;;;4.46;100.00
3250;BME280;1637;42.020;23.992;2023-03-01T03:02:44;93177.19;;;4.47;100.00
3250;BME280;1637;42.020;23.992;2023-03-01T03:05:13;93180.56;;;4.67;100.00
3250;BME280;1637;42.020;23.992;2023-03-01T03:07:43;93181.56;;;4.59;100.00
3250;BME280;1637;42.020;23.992;2023-03-01T03:10:13;93181.53;;;4.55;100.00
3250;BME280;1637;42.020;23.992;2023-03-01T03:12:40;93174.00;;;4.61;100.00
3250;BME280;1637;42.020;23.992;2023-03-01T03:15:10;93176.16;;;4.74;100.00
3250;BME280;1637;42.020;23.992;2023-03-01T03:17:39;93175.91;;;4.60;100.00
3250;BME280;1637;42.020;23.992;2023-03-01T03:20:10;93175.88;;;4.57;100.00
3250;BME280;1637;42.020;23.992;2023-03-01T03:22:38;93163.66;;;4.52;100.00
3250;BME280;1637;42.020;23.992;2023-03-01T03:25:07;93165.97;;;4.54;100.00
3250;BME280;1637;42.020;23.992;2023-03-01T03:27:36;93164.06;;;4.54;100.00
3250;BME280;1637;42.020;23.992;2023-03-01T03:30:03;93168.25;;;4.55;100.00
3250;BME280;1637;42.020;23.992;2023-03-01T03:32:35;93163.47;;;4.41;100.00
3250;BME280;1637;42.020;23.992;2023-03-01T03:35:02;93170.22;;;4.39;100.00
3250;BME280;1637;42.020;23.992;2023-03-01T03:37:35;93169.88;;;4.40;100.00
3250;BME280;1637;42.020;23.992;2023-03-01T03:40:19;93161.28;;;4.47;100.00
3250;BME280;1637;42.020;23.992;2023-03-01T03:45:50;93177.63;;;4.49;100.00
3250;BME280;1637;42.020;23.992;2023-03-01T03:48:19;93187.25;;;4.57;100.00
3250;BME280;1637;42.020;23.992;2023-03-01T03:50:48;93177.91;;;4.44;100.00
3250;BME280;1637;42.020;23.992;2023-03-01T03:53:15;93184.22;;;4.59;100.00
3250;BME280;1637;42.020;23.992;2023-03-01T03:55:42;93189.22;;;4.64;100.00
3250;BME280;1637;42.020;23.992;2023-03-01T03:58:10;93147.69;;;4.48;100.00
3250;BME280;1637;42.020;23.992;2023-03-01T04:00:39;93185.03;;;4.63;100.00
3250;BME280;1637;42.020;23.992;2023-03-01T04:03:06;93167.84;;;4.53;100.00
3250;BME280;1637;42.020;23.992;2023-03-01T04:05:35;93179.38;;;4.64;100.00
3250;BME280;1637;42.020;23.992;2023-03-01T04:08:03;93179.63;;;4.78;100.00
3250;BME280;1637;42.020;23.992;2023-03-01T04:10:34;93181.34;;;4.67;100.00
3250;BME280;1637;42.020;23.992;2023-03-01T04:13:02;93186.00;;;4.74;100.00
3250;BME280;1637;42.020;23.992;2023-03-01T04:15:30;93185.16;;;4.93;100.00
3250;BME280;1637;42.020;23.992;2023-03-01T04:17:58;93192.22;;;5.08;100.00
3250;BME280;1637;42.020;23.992;2023-03-01T04:20:27;93177.16;;;4.89;100.00
3250;BME280;1637;42.020;23.992;2023-03-01T04:23:00;93163.13;;;4.66;100.00
3250;BME280;1637;42.020;23.992;2023-03-01T04:25:36;93189.88;;;4.80;100.00
3250;BME280;1637;42.020;23.992;2023-03-01T04:28:03;93187.34;;;4.87;100.00
3250;BME280;1637;42.020;23.992;2023-03-01T04:30:30;93195.19;;;5.03;100.00
3250;BME280;1637;42.020;23.992;2023-03-01T04:33:01;93194.47;;;4.83;100.00
3250;BME280;1637;42.020;23.992;2023-03-01T04:35:29;93185.41;;;4.84;100.00
3250;BME280;1637;42.020;23.992;2023-03-01T04:37:56;93186.28;;;4.92;100.00
3250;BME280;1637;42.020;23.992;2023-03-01T04:40:24;93187.56;;;4.78;100.00
3250;BME280;1637;42.020;23.992;2023-03-01T04:42:51;93180.03;;;4.80;100.00
3250;BME280;1637;42.020;23.992;2023-03-01T04:45:18;93184.13;;;4.74;100.00
3250;BME280;1637;42.020;23.992;2023-03-01T04:47:46;93179.31;;;4.83;100.00
3250;BME280;1637;42.020;23.992;2023-03-01T04:50:14;93145.50;;;4.54;100.00
3250;BME280;1637;42.020;23.992;2023-03-01T04:52:41;93178.88;;;4.78;100.00
3250;BME280;1637;42.020;23.992;2023-03-01T04:55:09;93162.75;;;4.67;100.00
3250;BME280;1637;42.020;23.992;2023-03-01T04:57:37;93173.03;;;4.92;100.00
3250;BME280;1637;42.020;23.992;2023-03-01T05:00:06;93181.69;;;4.66;100.00
3250;BME280;1637;42.020;23.992;2023-03-01T05:02:46;93178.31;;;4.92;100.00
3250;BME280;1637;42.020;23.992;2023-03-01T05:05:19;93179.25;;;5.03;100.00
3250;BME280;1637;42.020;23.992;2023-03-01T05:07:46;93185.69;;;5.02;100.00
3250;BME280;1637;42.020;23.992;2023-03-01T05:10:13;93180.44;;;5.05;100.00
3250;BME280;1637;42.020;23.992;2023-03-01T05:12:41;93191.56;;;5.14;100.00
3250;BME280;1637;42.020;23.992;2023-03-01T05:15:09;93188.91;;;5.14;100.00
3250;BME280;1637;42.020;23.992;2023-03-01T05:17:35;93191.63;;;5.18;100.00
3250;BME280;1637;42.020;23.992;2023-03-01T05:20:03;93184.38;;;5.15;100.00
3250;BME280;1637;42.020;23.992;2023-03-01T05:22:34;93188.56;;;5.16;100.00
3250;BME280;1637;42.020;23.992;2023-03-01T05:25:01;93182.84;;;5.14;100.00
3250;BME280;1637;42.020;23.992;2023-03-01T05:27:28;93191.47;;;5.07;100.00
3250;BME280;1637;42.020;23.992;2023-03-01T05:29:56;93186.91;;;5.08;100.00
3250;BME280;1637;42.020;23.992;2023-03-01T05:32:23;93170.59;;;4.83;100.00
3250;BME280;1637;42.020;23.992;2023-03-01T05:34:49;93191.34;;;5.00;100.00
3250;BME280;1637;42.020;23.992;2023-03-01T05:37:17;93191.06;;;4.82;100.00
3250;BME280;1637;42.020;23.992;2023-03-01T05:39:44;93192.19;;;4.81;100.00
3250;BME280;1637;42.020;23.992;2023-03-01T05:42:11;93191.72;;;4.76;100.00
3250;BME280;1637;42.020;23.992;2023-03-01T05:44:38;93193.72;;;4.82;100.00
3250;BME280;1637;42.020;23.992;2023-03-01T05:47:07;93193.47;;;4.91;100.00
3250;BME280;1637;42.020;23.992;2023-03-01T05:49:34;93193.97;;;4.97;100.00
3250;BME280;1637;42.020;23.992;2023-03-01T05:52:01;93196.50;;;4.90;100.00
3250;BME280;1637;42.020;23.992;2023-03-01T05:54:27;93197.25;;;4.90;100.00
3250;BME280;1637;42.020;23.992;2023-03-01T05:56:54;93194.38;;;4.99;100.00
3250;BME280;1637;42.020;23.992;2023-03-01T05:59:21;93198.53;;;5.00;100.00
3250;BME280;1637;42.020;23.992;2023-03-01T06:01:48;93196.50;;;4.90;100.00
3250;BME280;1637;42.020;23.992;2023-03-01T06:04:16;93191.53;;;5.11;100.00
3250;BME280;1637;42.020;23.992;2023-03-01T06:06:43;93203.13;;;5.03;100.00
3250;BME280;1637;42.020;23.992;2023-03-01T06:09:10;93208.16;;;5.08;100.00
3250;BME280;1637;42.020;23.992;2023-03-01T06:11:37;93214.47;;;5.00;100.00
3250;BME280;1637;42.020;23.992;2023-03-01T06:14:04;93224.28;;;4.96;100.00
3250;BME280;1637;42.020;23.992;2023-03-01T06:16:31;93216.47;;;5.06;100.00
3250;BME280;1637;42.020;23.992;2023-03-01T06:18:58;93216.31;;;4.96;100.00
3250;BME280;1637;42.020;23.992;2023-03-01T06:21:26;93214.66;;;4.88;100.00
3250;BME280;1637;42.020;23.992;2023-03-01T06:23:53;93221.06;;;4.87;100.00
3250;BME280;1637;42.020;23.992;2023-03-01T06:26:20;93215.28;;;4.81;100.00
3250;BME280;1637;42.020;23.992;2023-03-01T06:28:46;93217.94;;;5.04;100.00
3250;BME280;1637;42.020;23.992;2023-03-01T06:31:13;93212.88;;;5.18;100.00
3250;BME280;1637;42.020;23.992;2023-03-01T06:33:40;93219.22;;;5.36;100.00
3250;BME280;1637;42.020;23.992;2023-03-01T06:36:08;93194.88;;;5.08;100.00
3250;BME280;1637;42.020;23.992;2023-03-01T06:38:36;93220.72;;;5.11;100.00
3250;BME280;1637;42.020;23.992;2023-03-01T06:41:03;93225.66;;;5.35;100.00
3250;BME280;1637;42.020;23.992;2023-03-01T06:43:30;93222.78;;;5.47;100.00
3250;BME280;1637;42.020;23.992;2023-03-01T06:45:57;93227.44;;;5.54;100.00
3250;BME280;1637;42.020;23.992;2023-03-01T06:48:24;93221.25;;;5.46;100.00
3250;BME280;1637;42.020;23.992;2023-03-01T06:50:51;93230.47;;;5.52;100.00
3250;BME280;1637;42.020;23.992;2023-03-01T06:53:17;93225.53;;;5.28;100.00
3250;BME280;1637;42.020;23.992;2023-03-01T06:55:46;93240.81;;;5.35;100.00
3250;BME280;1637;42.020;23.992;2023-03-01T06:58:12;93229.94;;;5.17;100.00
3250;BME280;1637;42.020;23.992;2023-03-01T07:00:39;93230.69;;;5.44;100.00
3250;BME280;1637;42.020;23.992;2023-03-01T07:03:08;93236.38;;;5.42;100.00
3250;BME280;1637;42.020;23.992;2023-03-01T07:05:35;93236.53;;;5.53;100.00
3250;BME280;1637;42.020;23.992;2023-03-01T07:08:01;93228.66;;;5.34;100.00
3250;BME280;1637;42.020;23.992;2023-03-01T07:10:28;93230.41;;;5.49;100.00
3250;BME280;1637;42.020;23.992;2023-03-01T07:12:57;93229.94;;;5.70;100.00
3250;BME280;1637;42.020;23.992;2023-03-01T07:15:25;93232.78;;;5.84;100.00
3250;BME280;1637;42.020;23.992;2023-03-01T07:17:52;93225.09;;;5.75;100.00
3250;BME280;1637;42.020;23.992;2023-03-01T07:20:20;93231.47;;;5.71;100.00
3250;BME280;1637;42.020;23.992;2023-03-01T07:22:49;93235.03;;;6.08;100.00
3250;BME280;1637;42.020;23.992;2023-03-01T07:25:16;93238.34;;;5.98;100.00
3250;BME280;1637;42.020;23.992;2023-03-01T07:27:43;93226.34;;;5.85;100.00
3250;BME280;1637;42.020;23.992;2023-03-01T07:30:12;93228.56;;;5.79;100.00
3250;BME280;1637;42.020;23.992;2023-03-01T07:32:39;93228.06;;;5.97;100.00
3250;BME280;1637;42.020;23.992;2023-03-01T07:35:06;93228.38;;;6.22;100.00
3250;BME280;1637;42.020;23.992;2023-03-01T07:37:33;93216.97;;;6.25;100.00
3250;BME280;1637;42.020;23.992;2023-03-01T07:40:00;93212.69;;;6.13;100.00
3250;BME280;1637;42.020;23.992;2023-03-01T07:42:27;93219.06;;;6.08;100.00
3250;BME280;1637;42.020;23.992;2023-03-01T07:44:54;93209.34;;;6.19;100.00
3250;BME280;1637;42.020;23.992;2023-03-01T07:47:22;93208.41;;;6.38;100.00
3250;BME280;1637;42.020;23.992;2023-03-01T07:49:49;93208.50;;;6.49;100.00
3250;BME280;1637;42.020;23.992;2023-03-01T07:52:15;93187.41;;;6.67;100.00
3250;BME280;1637;42.020;23.992;2023-03-01T07:54:43;93207.41;;;6.90;100.00
3250;BME280;1637;42.020;23.992;2023-03-01T07:57:10;93203.69;;;6.99;100.00
3250;BME280;1637;42.020;23.992;2023-03-01T07:59:37;93209.66;;;7.33;100.00
3250;BME280;1637;42.020;23.992;2023-03-01T08:02:05;93206.41;;;7.06;100.00
3250;BME280;1637;42.020;23.992;2023-03-01T08:04:33;93201.72;;;6.92;100.00
3250;BME280;1637;42.020;23.992;2023-03-01T08:07:00;93198.56;;;6.79;100.00
3250;BME280;1637;42.020;23.992;2023-03-01T08:09:27;93198.78;;;7.04;100.00
3250;BME280;1637;42.020;23.992;2023-03-01T08:11:53;93201.38;;;6.97;100.00
3250;BME280;1637;42.020;23.992;2023-03-01T08:14:20;93202.03;;;6.83;100.00
3250;BME280;1637;42.020;23.992;2023-03-01T08:16:49;93203.78;;;6.69;100.00
3250;BME280;1637;42.020;23.992;2023-03-01T08:19:16;93198.69;;;6.94;100.00
3250;BME280;1637;42.020;23.992;2023-03-01T08:21:45;93199.59;;;7.12;100.00
3250;BME280;1637;42.020;23.992;2023-03-01T08:24:12;93201.53;;;7.15;100.00
3250;BME280;1637;42.020;23.992;2023-03-01T08:26:39;93160.38;;;7.09;100.00
3250;BME280;1637;42.020;23.992;2023-03-01T08:29:06;93191.41;;;7.35;100.00
3250;BME280;1637;42.020;23.992;2023-03-01T08:31:34;93186.25;;;7.63;100.00
3250;BME280;1637;42.020;23.992;2023-03-01T08:34:05;93203.63;;;8.05;100.00
3250;BME280;1637;42.020;23.992;2023-03-01T08:36:35;93158.78;;;7.55;100.00
3250;BME280;1637;42.020;23.992;2023-03-01T08:39:04;93201.66;;;7.94;100.00
3250;BME280;1637;42.020;23.992;2023-03-01T08:41:31;93207.72;;;7.91;100.00
3250;BME280;1637;42.020;23.992;2023-03-01T08:43:58;93199.97;;;7.65;100.00
3250;BME280;1637;42.020;23.992;2023-03-01T08:46:26;93193.63;;;7.29;100.00
3250;BME280;1637;42.020;23.992;2023-03-01T08:48:52;93193.91;;;7.68;100.00
3250;BME280;1637;42.020;23.992;2023-03-01T08:51:21;93192.44;;;7.78;100.00
3250;BME280;1637;42.020;23.992;2023-03-01T08:53:48;93193.75;;;7.43;100.00
3250;BME280;1637;42.020;23.992;2023-03-01T08:56:17;93192.66;;;7.48;100.00
3250;BME280;1637;42.020;23.992;2023-03-01T08:58:45;93195.59;;;7.36;100.00
3250;BME280;1637;42.020;23.992;2023-03-01T09:01:13;93187.53;;;7.25;100.00
3250;BME280;1637;42.020;23.992;2023-03-01T09:03:41;93175.34;;;7.24;100.00
3250;BME280;1637;42.020;23.992;2023-03-01T09:06:08;93193.41;;;7.52;100.00
3250;BME280;1637;42.020;23.992;2023-03-01T09:08:35;93178.44;;;7.33;100.00
3250;BME280;1637;42.020;23.992;2023-03-01T09:11:02;93189.56;;;7.49;100.00
3250;BME280;1637;42.020;23.992;2023-03-01T09:13:31;93190.78;;;7.55;100.00
3250;BME280;1637;42.020;23.992;2023-03-01T09:15:58;93191.63;;;7.67;100.00
3250;BME280;1637;42.020;23.992;2023-03-01T09:18:25;93195.59;;;8.01;100.00
3250;BME280;1637;42.020;23.992;2023-03-01T09:20:52;93188.72;;;8.00;100.00
3250;BME280;1637;42.020;23.992;2023-03-01T09:23:20;93192.09;;;7.90;100.00
3250;BME280;1637;42.020;23.992;2023-03-01T09:25:47;93193.88;;;7.65;100.00
3250;BME280;1637;42.020;23.992;2023-03-01T09:28:14;93181.63;;;7.56;100.00
3250;BME280;1637;42.020;23.992;2023-03-01T09:30:42;93188.06;;;7.45;100.00
3250;BME280;1637;42.020;23.992;2023-03-01T09:33:09;93182.63;;;7.34;100.00
3250;BME280;1637;42.020;23.992;2023-03-01T09:35:40;93182.34;;;7.46;100.00
3250;BME280;1637;42.020;23.992;2023-03-01T09:38:11;93185.53;;;7.73;100.00
3250;BME280;1637;42.020;23.992;2023-03-01T09:40:42;93176.09;;;7.83;100.00
3250;BME280;1637;42.020;23.992;2023-03-01T09:43:18;93180.56;;;7.72;100.00
3250;BME280;1637;42.020;23.992;2023-03-01T09:45:50;93177.13;;;7.64;100.00
3250;BME280;1637;42.020;23.992;2023-03-01T09:48:22;93171.09;;;7.78;100.00
3250;BME280;1637;42.020;23.992;2023-03-01T09:50:51;93177.25;;;7.85;100.00
3250;BME280;1637;42.020;23.992;2023-03-01T09:53:19;93168.50;;;7.92;99.06
3250;BME280;1637;42.020;23.992;2023-03-01T09:55:51;93173.91;;;8.13;97.97
3250;BME280;1637;42.020;23.992;2023-03-01T09:58:41;93165.53;;;8.08;99.49
3250;BME280;1637;42.020;23.992;2023-03-01T10:01:26;93168.09;;;7.90;100.00
3250;BME280;1637;42.020;23.992;2023-03-01T10:04:15;93165.38;;;7.76;100.00
3250;BME280;1637;42.020;23.992;2023-03-01T10:06:47;93161.59;;;7.80;100.00
3250;BME280;1637;42.020;23.992;2023-03-01T10:09:17;93160.06;;;7.79;100.00
3250;BME280;1637;42.020;23.992;2023-03-01T10:11:49;93162.69;;;7.76;100.00
3250;BME280;1637;42.020;23.992;2023-03-01T10:14:27;93153.16;;;7.71;100.00
3250;BME280;1637;42.020;23.992;2023-03-01T10:16:59;93154.94;;;7.46;100.00
3250;BME280;1637;42.020;23.992;2023-03-01T10:19:32;93153.38;;;7.41;100.00
3250;BME280;1637;42.020;23.992;2023-03-01T10:22:05;93155.63;;;7.36;100.00
3250;BME280;1637;42.020;23.992;2023-03-01T10:24:37;93154.06;;;7.31;100.00
3250;BME280;1637;42.020;23.992;2023-03-01T10:27:09;93124.84;;;6.90;100.00
3250;BME280;1637;42.020;23.992;2023-03-01T10:29:40;93160.31;;;6.98;100.00
3250;BME280;1637;42.020;23.992;2023-03-01T10:32:11;93156.22;;;7.11;100.00
3250;BME280;1637;42.020;23.992;2023-03-01T10:34:38;93150.91;;;7.15;100.00
3250;BME280;1637;42.020;23.992;2023-03-01T10:37:13;93149.72;;;7.05;100.00
3250;BME280;1637;42.020;23.992;2023-03-01T10:39:57;93184.19;;;6.91;100.00
3250;BME280;1637;42.020;23.992;2023-03-01T10:42:29;93103.88;;;6.82;100.00
3250;BME280;1637;42.020;23.992;2023-03-01T10:44:57;93141.31;;;7.03;100.00
3250;BME280;1637;42.020;23.992;2023-03-01T10:47:27;93141.28;;;7.00;100.00
3250;BME280;1637;42.020;23.992;2023-03-01T10:49:57;93140.94;;;7.01;100.00
3250;BME280;1637;42.020;23.992;2023-03-01T10:52:27;93128.84;;;7.14;100.00
3250;BME280;1637;42.020;23.992;2023-03-01T10:54:56;93104.28;;;6.87;100.00
3250;BME280;1637;42.020;23.992;2023-03-01T10:57:29;93102.84;;;6.97;100.00
3250;BME280;1637;42.020;23.992;2023-03-01T11:00:29;93125.09;;;7.22;100.00
3250;BME280;1637;42.020;23.992;2023-03-01T11:03:13;93119.78;;;7.22;100.00
3250;BME280;1637;42.020;23.992;2023-03-01T11:06:01;93117.56;;;7.39;100.00
3250;BME280;1637;42.020;23.992;2023-03-01T11:08:37;93125.69;;;8.93;100.00
3250;BME280;1637;42.020;23.992;2023-03-01T11:11:17;93118.41;;;9.18;100.00
3250;BME280;1637;42.020;23.992;2023-03-01T11:13:56;93111.94;;;8.94;96.04
3250;BME280;1637;42.020;23.992;2023-03-01T11:16:29;93104.31;;;8.79;97.13
3250;BME280;1637;42.020;23.992;2023-03-01T11:19:19;93092.72;;;8.00;96.87
3250;BME280;1637;42.020;23.992;2023-03-01T11:21:57;93105.03;;;8.40;97.49
3250;BME280;1637;42.020;23.992;2023-03-01T11:24:30;93099.53;;;7.90;100.00
3250;BME280;1637;42.020;23.992;2023-03-01T11:27:00;93089.28;;;7.16;100.00
3250;BME280;1637;42.020;23.992;2023-03-01T11:29:33;93090.34;;;7.77;100.00
3250;BME280;1637;42.020;23.992;2023-03-01T11:32:07;93088.50;;;7.88;100.00
3250;BME280;1637;42.020;23.992;2023-03-01T11:34:43;93097.25;;;7.89;100.00
3250;BME280;1637;42.020;23.992;2023-03-01T11:37:20;93088.88;;;7.94;100.00
3250;BME280;1637;42.020;23.992;2023-03-01T11:39:55;93082.03;;;8.00;100.00
3250;BME280;1637;42.020;23.992;2023-03-01T11:42:29;93082.75;;;7.90;100.00
3250;BME280;1637;42.020;23.992;2023-03-01T11:45:01;93084.34;;;8.02;100.00
3250;BME280;1637;42.020;23.992;2023-03-01T11:47:47;93080.88;;;7.98;100.00
3250;BME280;1637;42.020;23.992;2023-03-01T11:50:26;93069.34;;;7.65;100.00
3250;BME280;1637;42.020;23.992;2023-03-01T11:53:02;93064.09;;;7.90;100.00
3250;BME280;1637;42.020;23.992;2023-03-01T11:55:46;93069.06;;;7.95;100.00
3250;BME280;1637;42.020;23.992;2023-03-01T11:58:29;93041.25;;;7.85;100.00
3250;BME280;1637;42.020;23.992;2023-03-01T12:01:15;93070.28;;;8.26;100.00
3250;BME280;1637;42.020;23.992;2023-03-01T12:03:59;93070.28;;;8.26;100.00
3250;BME280;1637;42.020;23.992;2023-03-01T12:06:47;93061.44;;;7.93;100.00
3250;BME280;1637;42.020;23.992;2023-03-01T12:09:36;93059.97;;;8.14;100.00
3250;BME280;1637;42.020;23.992;2023-03-01T12:12:30;93068.34;;;8.05;100.00
3250;BME280;1637;42.020;23.992;2023-03-01T12:15:23;93060.69;;;7.86;100.00
3250;BME280;1637;42.020;23.992;2023-03-01T12:18:08;93062.97;;;7.98;100.00
3250;BME280;1637;42.020;23.992;2023-03-01T12:20:42;93076.34;;;8.05;100.00
3250;BME280;1637;42.020;23.992;2023-03-01T12:23:31;93065.25;;;7.85;100.00
3250;BME280;1637;42.020;23.992;2023-03-01T12:26:08;93060.22;;;7.66;100.00
3250;BME280;1637;42.020;23.992;2023-03-01T12:28:47;93058.91;;;7.32;100.00
3250;BME280;1637;42.020;23.992;2023-03-01T12:31:45;93067.09;;;7.67;100.00
3250;BME280;1637;42.020;23.992;2023-03-01T12:34:31;93059.91;;;7.82;100.00
3250;BME280;1637;42.020;23.992;2023-03-01T12:37:17;93056.44;;;7.74;100.00
3250;BME280;1637;42.020;23.992;2023-03-01T12:40:01;93050.31;;;7.63;100.00
3250;BME280;1637;42.020;23.992;2023-03-01T12:42:35;93051.13;;;7.81;100.00
3250;BME280;1637;42.020;23.992;2023-03-01T12:45:27;93046.19;;;7.90;100.00
3250;BME280;1637;42.020;23.992;2023-03-01T12:48:18;93047.72;;;7.88;100.00
3250;BME280;1637;42.020;23.992;2023-03-01T12:50:52;93047.72;;;7.88;100.00
3250;BME280;1637;42.020;23.992;2023-03-01T12:53:23;93053.09;;;8.02;100.00
3250;BME280;1637;42.020;23.992;2023-03-01T12:55:53;93047.78;;;8.09;100.00
3250;BME280;1637;42.020;23.992;2023-03-01T12:58:24;93044.69;;;8.00;98.90
3250;BME280;1637;42.020;23.992;2023-03-01T13:01:05;93040.75;;;7.55;100.00
3250;BME280;1637;42.020;23.992;2023-03-01T13:04:10;93048.09;;;7.93;100.00
3250;BME280;1637;42.020;23.992;2023-03-01T13:06:44;93040.09;;;7.93;99.87
3250;BME280;1637;42.020;23.992;2023-03-01T13:09:20;93038.97;;;7.98;98.95
3250;BME280;1637;42.020;23.992;2023-03-01T13:11:51;93032.53;;;8.10;100.00
3250;BME280;1637;42.020;23.992;2023-03-01T13:14:39;93017.28;;;8.17;98.21
3250;BME280;1637;42.020;23.992;2023-03-01T13:17:32;93036.41;;;8.41;99.52
3250;BME280;1637;42.020;23.992;2023-03-01T13:20:13;93042.06;;;8.18;100.00
3250;BME280;1637;42.020;23.992;2023-03-01T13:22:41;93013.84;;;8.17;99.02
3250;BME280;1637;42.020;23.992;2023-03-01T13:25:16;93036.25;;;7.77;100.00
3250;BME280;1637;42.020;23.992;2023-03-01T13:27:45;93028.22;;;7.70;100.00
3250;BME280;1637;42.020;23.992;2023-03-01T13:30:41;93015.63;;;7.59;100.00
3250;BME280;1637;42.020;23.992;2023-03-01T13:33:42;93027.09;;;7.74;100.00
3250;BME280;1637;42.020;23.992;2023-03-01T13:36:09;93008.78;;;7.62;100.00